METAR AND TAF INFORMATION
METAR FOR PGUM
ADDS - METARS form results

(1710 UTC 15 August 2018)
Data provider http://aviationweather.gov/adds/metars/
 
METAR text: PGUM 151702Z 18015G23KT 2SM +RA BR SCT005 BKN011 OVC023 26/26 A2955 RMK AO2 P0005 T02560256
Conditions at: PGUM (AGANA , GU, US) observed 1702 UTC 15 August 2018
Temperature: 25.6°C (78°F)
Dewpoint: 25.6°C (78°F) [RH = 100%]
Pressure (altimeter): 29.55 inches Hg (1000.8 mb)
Winds: from the S (180 degrees) at 17 MPH (15 knots; 7.8 m/s)
gusting to 26 MPH (23 knots; 12.0 m/s)
Visibility: 2.00 miles (3.22 km)
Ceiling: 1100 feet AGL
Clouds: scattered clouds at 500 feet AGL
broken clouds at 1100 feet AGL
overcast cloud deck at 2300 feet AGL
Weather: +RA BR  (heavy rain, mist)

METAR text: PGUM 151654Z 18009G18KT 1 1/4SM +RA BR BKN005 OVC014 26/26 A2955 RMK AO2 SLP999 P0069 T02610261
Conditions at: PGUM (AGANA , GU, US) observed 1654 UTC 15 August 2018
Temperature: 26.1°C (79°F)
Dewpoint: 26.1°C (79°F) [RH = 100%]
Pressure (altimeter): 29.55 inches Hg (1000.8 mb)
[Sea-level pressure: 999.9 mb]
Winds: from the S (180 degrees) at 10 MPH (9 knots; 4.7 m/s)
gusting to 21 MPH (18 knots; 9.4 m/s)
Visibility: 1.25 miles (2.01 km)
Ceiling: 500 feet AGL
Clouds: broken clouds at 500 feet AGL
overcast cloud deck at 1400 feet AGL
Weather: +RA BR  (heavy rain, mist)

METAR text: PGUM 151642Z 18011G18KT 1 1/2SM RA BR SCT005 BKN011 OVC017 26/26 A2955 RMK AO2 P0054 T02610261
Conditions at: PGUM (AGANA , GU, US) observed 1642 UTC 15 August 2018
Temperature: 26.1°C (79°F)
Dewpoint: 26.1°C (79°F) [RH = 100%]
Pressure (altimeter): 29.55 inches Hg (1000.8 mb)
Winds: from the S (180 degrees) at 13 MPH (11 knots; 5.7 m/s)
gusting to 21 MPH (18 knots; 9.4 m/s)
Visibility: 1.50 miles (2.41 km)
Ceiling: 1100 feet AGL
Clouds: scattered clouds at 500 feet AGL
broken clouds at 1100 feet AGL
overcast cloud deck at 1700 feet AGL
Weather: RA BR  (rain, mist)

METAR text: PGUM 151639Z 16012G18KT 1 1/4SM +RA BR BKN004 BKN011 OVC017 26/26 A2955 RMK AO2 P0053 T02610261
Conditions at: PGUM (AGANA , GU, US) observed 1639 UTC 15 August 2018
Temperature: 26.1°C (79°F)
Dewpoint: 26.1°C (79°F) [RH = 100%]
Pressure (altimeter): 29.55 inches Hg (1000.8 mb)
Winds: from the SSE (160 degrees) at 14 MPH (12 knots; 6.2 m/s)
gusting to 21 MPH (18 knots; 9.4 m/s)
Visibility: 1.25 miles (2.01 km)
Ceiling: 400 feet AGL
Clouds: broken clouds at 400 feet AGL
broken clouds at 1100 feet AGL
overcast cloud deck at 1700 feet AGL
Weather: +RA BR  (heavy rain, mist)

METAR text: PGUM 151627Z 15006KT 1 1/4SM +RA BR FEW004 FEW011 OVC015 25/25 A2956 RMK AO2 P0036 T02500250
Conditions at: PGUM (AGANA , GU, US) observed 1627 UTC 15 August 2018
Temperature: 25.0°C (77°F)
Dewpoint: 25.0°C (77°F) [RH = 100%]
Pressure (altimeter): 29.56 inches Hg (1001.1 mb)
Winds: from the SSE (150 degrees) at 7 MPH (6 knots; 3.1 m/s)
Visibility: 1.25 miles (2.01 km)
Ceiling: 1500 feet AGL
Clouds: few clouds at 400 feet AGL
few clouds at 1100 feet AGL
overcast cloud deck at 1500 feet AGL
Weather: +RA BR  (heavy rain, mist)

METAR text: PGUM 151620Z 17010KT 2SM +RA BR FEW004 BKN015 OVC024 25/25 A2957 RMK AO2 VIS 1 1/2V4 P0026 T02500250
Conditions at: PGUM (AGANA , GU, US) observed 1620 UTC 15 August 2018
Temperature: 25.0°C (77°F)
Dewpoint: 25.0°C (77°F) [RH = 100%]
Pressure (altimeter): 29.57 inches Hg (1001.4 mb)
Winds: from the S (170 degrees) at 12 MPH (10 knots; 5.2 m/s)
Visibility: 2.00 miles (3.22 km)
Ceiling: 1500 feet AGL
Clouds: few clouds at 400 feet AGL
broken clouds at 1500 feet AGL
overcast cloud deck at 2400 feet AGL
Weather: +RA BR  (heavy rain, mist)

METAR text: PGUM 151611Z 10005KT 1SM +RA BR FEW004 OVC013 25/25 A2956 RMK AO2 P0017 T02500250
Conditions at: PGUM (AGANA , GU, US) observed 1611 UTC 15 August 2018
Temperature: 25.0°C (77°F)
Dewpoint: 25.0°C (77°F) [RH = 100%]
Pressure (altimeter): 29.56 inches Hg (1001.1 mb)
Winds: from the E (100 degrees) at 6 MPH (5 knots; 2.6 m/s)
Visibility: 1.00 miles (1.61 km)
Ceiling: 1300 feet AGL
Clouds: few clouds at 400 feet AGL
overcast cloud deck at 1300 feet AGL
Weather: +RA BR  (heavy rain, mist)

Forecast for: PGUM (AGANA , GU, US)
Text: PGUM 151407Z 1514/1618 12011G20KT 6SM -RA VCSH SCT017 BKN050 OVC100
Forecast period: 1400 to 2200 UTC 15 August 2018
Forecast type: FROM: standard forecast or significant change
Winds: from the ESE (120 degrees) at 13 MPH (11 knots; 5.7 m/s)
gusting to 23 MPH (20 knots; 10.4 m/s)
Visibility: 6 miles (10 km)
Ceiling: 5000 feet AGL
Clouds: scattered clouds at 1700 feet AGL
broken clouds at 5000 feet AGL
overcast cloud deck at 10000 feet AGL
Weather: -RA VCSH  (light rain, showers in vicinity)
Text: TEMPO 1514/1518 14015G25KT 2SM +SHRA BKN017 OVC030
Forecast period: 1400 to 1800 UTC 15 August 2018
Forecast type: TEMPORARY: The following changes expected for less than half the time period
Winds: from the SE (140 degrees) at 17 MPH (15 knots; 7.8 m/s)
gusting to 29 MPH (25 knots; 13.0 m/s)
Visibility: 2.00 miles (3.22 km)
Ceiling: 1700 feet AGL
Clouds: broken clouds at 1700 feet AGL
overcast cloud deck at 3000 feet AGL
Weather: +SHRA  (heavy rain showers)
Text: FM152200 16015KT P6SM VCSH SCT017 BKN040 OVC110
Forecast period: 2200 UTC 15 August 2018 to 0100 UTC 16 August 2018
Forecast type: FROM: standard forecast or significant change
Winds: from the SSE (160 degrees) at 17 MPH (15 knots; 7.8 m/s)
Visibility: 6 or more miles (10+ km)
Ceiling: 4000 feet AGL
Clouds: scattered clouds at 1700 feet AGL
broken clouds at 4000 feet AGL
overcast cloud deck at 11000 feet AGL
Weather: VCSH  (showers in vicinity)
Text: FM160100 19018G28KT P6SM VCSH SCT017 BKN030 OVC110
Forecast period: 0100 to 1800 UTC 16 August 2018
Forecast type: FROM: standard forecast or significant change
Winds: from the S (190 degrees) at 21 MPH (18 knots; 9.4 m/s)
gusting to 32 MPH (28 knots; 14.6 m/s)
Visibility: 6 or more miles (10+ km)
Ceiling: 3000 feet AGL
Clouds: scattered clouds at 1700 feet AGL
broken clouds at 3000 feet AGL
overcast cloud deck at 11000 feet AGL
Weather: VCSH  (showers in vicinity)

 AIRPORT MAP

 RUNWAY INFORMATION
Runway 06L Runway length 10015 ft Runway width 150 ft
Runway elevation 239 ft Runway displaced threshold 0 ft Runway heading 65
Runway 24R Runway length 10015 ft Runway width 150 ft
Runway elevation 297 ft Runway displaced threshold 0 ft Runway heading 245
Runway 06R Runway length 8001 ft Runway width 150 ft
Runway elevation 231 ft Runway displaced threshold 0 ft Runway heading 65
Runway 24L Runway length 8001 ft Runway width 150 ft
Runway elevation 284 ft Runway displaced threshold 0 ft Runway heading 245

 AIRPORT FREQUENCIES
Type A/D Name APP/DEP Frequency 118.7 MHZ
Type ARTC Name GUAM CERAP Frequency 120.5 MHZ
Type ATIS Name ATIS Frequency 119 MHZ
Type CLD Name CLNC DEL Frequency 121.9 MHZ
Type GND Name GND Frequency 121.9 MHZ
Type RMP Name RAMP Frequency 121.6 MHZ
Type TWR Name AGANA TWR Frequency 118.1 MHZ

 AIRPORT NEAR NAVIGATION AIDS
Type NDB Name Mt Macajna Frequency 385 KHZ
Type VORTAC Name Nimitz Frequency 115300 KHZ



Powered by Virtual Airlines Manager [v2.6.2]